Time;durP1;ratioP1;P1;durP2;ratioP2;P2;SDS_P1;SDS_P2;PMS_P1;PMS_P2;Temp;Humidity;BMP_temperature;BMP_pressure;BME280_temperature;BME280_humidity;BME280_pressure;Samples;Min_cycle;Max_cycle;Signal;HPM_P1;HPM_P2
2022/04/02 00:01:47;;;;;;;11.37;10.27;;;7.50;59.50;;;;;;5047367;28;20578;-44
2022/04/02 00:04:13;;;;;;;13.10;11.80;;;7.60;59.50;;;;;;5047240;28;20472;-44
2022/04/02 00:06:38;;;;;;;10.93;9.83;;;7.60;59.50;;;;;;5046730;28;20188;-44
2022/04/02 00:09:04;;;;;;;12.10;10.90;;;7.60;59.50;;;;;;5048978;28;20637;-44
2022/04/02 00:11:30;;;;;;;12.07;10.77;;;7.70;59.40;;;;;;5046704;28;20199;-44
2022/04/02 00:13:57;;;;;;;11.57;10.43;;;7.60;59.40;;;;;;5047496;28;20921;-45
2022/04/02 00:16:23;;;;;;;11.17;10.03;;;7.60;59.40;;;;;;5047052;28;20196;-44
2022/04/02 00:18:51;;;;;;;11.63;10.47;;;7.60;59.40;;;;;;5044888;28;20446;-45
2022/04/02 00:21:18;;;;;;;13.23;11.83;;;7.60;59.70;;;;;;5045479;28;20220;-45
2022/04/02 00:23:44;;;;;;;13.27;11.50;;;7.60;59.90;;;;;;5044555;28;20470;-44
2022/04/02 00:26:12;;;;;;;11.70;10.50;;;7.70;59.70;;;;;;5044426;28;20442;-45
2022/04/02 00:28:40;;;;;;;13.50;12.10;;;7.70;59.40;;;;;;5046289;28;20209;-45
2022/04/02 00:31:10;;;;;;;12.03;10.77;;;7.80;59.20;;;;;;5042117;28;20446;-44
2022/04/02 00:33:37;;;;;;;12.77;10.73;;;7.70;59.10;;;;;;5043770;28;20444;-45
2022/04/02 00:36:03;;;;;;;11.90;10.70;;;7.70;59.10;;;;;;5043332;28;20454;-46
2022/04/02 00:38:29;;;;;;;12.40;10.67;;;7.70;59.00;;;;;;5043550;28;20827;-45
2022/04/02 00:40:55;;;;;;;11.43;10.23;;;7.80;59.00;;;;;;5025230;28;20482;-44
2022/04/02 00:43:29;;;;;;;12.63;11.37;;;7.60;58.90;;;;;;5045360;28;20439;-44
2022/04/02 00:45:57;;;;;;;11.90;10.70;;;7.60;59.30;;;;;;5040817;28;20876;-46
2022/04/02 00:48:24;;;;;;;12.60;11.30;;;7.70;59.20;;;;;;5044543;28;20530;-44
2022/04/02 00:50:58;;;;;;;12.83;11.53;;;7.70;58.90;;;;;;5042965;28;20449;-44
2022/04/02 00:53:28;;;;;;;12.13;10.90;;;7.70;59.10;;;;;;5042419;28;20522;-44
2022/04/02 00:55:54;;;;;;;12.73;11.43;;;7.60;59.10;;;;;;5042122;28;20455;-44
2022/04/02 00:58:20;;;;;;;12.43;10.77;;;7.60;59.40;;;;;;5042862;28;20435;-44
2022/04/02 01:00:46;;;;;;;12.83;11.50;;;7.70;59.20;;;;;;5044509;28;20201;-44
2022/04/02 01:03:13;;;;;;;12.80;11.60;;;7.70;59.50;;;;;;5043480;28;20208;-44
2022/04/02 01:05:39;;;;;;;12.30;11.10;;;7.80;59.00;;;;;;5042263;28;20493;-44
2022/04/02 01:08:08;;;;;;;12.30;10.40;;;7.80;59.00;;;;;;5042944;28;20447;-44
2022/04/02 01:10:36;;;;;;;12.47;11.17;;;7.80;59.10;;;;;;5042192;28;20474;-45
2022/04/02 01:13:02;;;;;;;11.80;10.57;;;7.80;58.90;;;;;;5045601;28;20439;-45
2022/04/02 01:15:28;;;;;;;12.67;10.67;;;7.70;59.20;;;;;;5041249;28;20435;-45
2022/04/02 01:17:53;;;;;;;10.83;9.60;;;7.80;59.30;;;;;;5043255;28;20520;-46
2022/04/02 01:20:19;;;;;;;11.10;10.00;;;7.70;58.70;;;;;;5040534;28;20934;-44
2022/04/02 01:22:46;;;;;;;12.10;10.80;;;7.70;58.80;;;;;;5045141;28;20231;-45
2022/04/02 01:25:12;;;;;;;13.07;10.73;;;7.50;58.70;;;;;;5045160;28;20483;-44
2022/04/02 01:27:37;;;;;;;10.37;9.30;;;7.50;59.30;;;;;;5040747;28;20451;-45
2022/04/02 01:30:05;;;;;;;10.83;9.70;;;7.50;59.30;;;;;;5041487;28;20207;-44
2022/04/02 01:32:31;;;;;;;11.40;10.10;;;7.60;59.40;;;;;;5042073;28;22105;-44
2022/04/02 01:34:57;;;;;;;10.90;9.80;;;7.70;59.10;;;;;;5043184;28;20439;-44
2022/04/02 01:37:22;;;;;;;11.00;9.80;;;7.70;58.70;;;;;;5042435;28;20192;-45
2022/04/02 01:39:48;;;;;;;11.77;10.57;;;7.70;58.70;;;;;;5041310;28;20188;-45
2022/04/02 01:42:14;;;;;;;10.67;9.60;;;7.50;58.50;;;;;;5041544;28;20231;-45
2022/04/02 01:44:44;;;;;;;10.00;8.90;;;7.60;58.60;;;;;;5042916;28;20224;-44
2022/04/02 01:47:10;;;;;;;9.63;8.63;;;7.40;58.50;;;;;;5039782;28;20446;-45
2022/04/02 01:49:35;;;;;;;10.73;9.77;;;7.50;58.50;;;;;;5040758;28;21001;-44
2022/04/02 01:52:01;;;;;;;10.20;9.17;;;7.50;58.80;;;;;;5043393;28;20200;-44
2022/04/02 01:54:26;;;;;;;13.20;10.07;;;7.50;58.80;;;;;;5043325;28;20222;-44
2022/04/02 01:56:52;;;;;;;11.57;9.67;;;7.60;58.60;;;;;;5048453;28;20785;-44
2022/04/02 01:59:17;;;;;;;11.57;9.97;;;7.30;58.70;;;;;;5043499;28;20216;-44
2022/04/02 02:01:43;;;;;;;13.27;9.53;;;7.30;58.90;;;;;;5043386;28;20220;-45
2022/04/02 02:04:09;;;;;;;12.93;9.50;;;7.30;59.00;;;;;;5052199;28;20268;-45
2022/04/02 02:06:38;;;;;;;9.90;8.93;;;7.40;58.80;;;;;;5041611;28;20205;-45
2022/04/02 02:09:05;;;;;;;10.10;9.10;;;7.40;58.60;;;;;;5044456;28;20205;-44
2022/04/02 02:11:30;;;;;;;13.63;8.40;;;7.50;58.70;;;;;;5045670;28;20934;-44
2022/04/02 02:13:56;;;;;;;9.90;8.63;;;7.50;58.60;;;;;;5046158;28;20439;-44
2022/04/02 02:16:22;;;;;;;9.47;8.53;;;7.60;58.70;;;;;;5045850;28;20781;-44
2022/04/02 02:18:47;;;;;;;8.90;7.97;;;7.60;58.40;;;;;;5048829;28;20197;-44
2022/04/02 02:21:13;;;;;;;9.43;7.87;;;7.60;58.40;;;;;;5045224;28;20212;-44
2022/04/02 02:23:39;;;;;;;10.60;8.90;;;7.50;58.20;;;;;;5047618;28;20232;-44
2022/04/02 02:26:05;;;;;;;9.60;8.70;;;7.40;58.20;;;;;;5045166;28;20520;-45
2022/04/02 02:28:30;;;;;;;9.30;8.40;;;7.30;58.50;;;;;;5052473;28;20216;-44
2022/04/02 02:30:58;;;;;;;11.90;9.30;;;7.20;58.50;;;;;;5048970;28;20267;-45
2022/04/02 02:36:11;;;;;;;10.10;7.87;;;6.90;59.40;;;;;;5047358;28;20587;-44
2022/04/02 02:38:36;;;;;;;10.33;7.83;;;6.90;59.30;;;;;;5048052;28;20468;-44
2022/04/02 02:41:03;;;;;;;10.60;8.87;;;6.70;60.90;;;;;;5047499;28;20836;-45
2022/04/02 02:43:28;;;;;;;10.60;8.27;;;6.90;60.10;;;;;;5046073;28;20193;-44
2022/04/02 02:45:54;;;;;;;9.83;8.60;;;7.00;59.90;;;;;;5043831;28;21282;-44
2022/04/02 02:48:21;;;;;;;8.23;6.97;;;7.10;59.60;;;;;;5047644;28;20318;-45
2022/04/02 02:50:47;;;;;;;7.80;7.00;;;7.10;59.10;;;;;;5046543;28;20181;-44
2022/04/02 02:53:12;;;;;;;14.27;7.60;;;7.10;59.40;;;;;;5045412;28;20451;-44
2022/04/02 02:55:38;;;;;;;9.03;8.13;;;7.20;59.10;;;;;;5045475;28;20806;-44
2022/04/02 02:58:04;;;;;;;11.33;8.50;;;7.00;58.50;;;;;;5046845;28;20189;-44
2022/04/02 03:00:30;;;;;;;9.63;8.00;;;6.90;59.20;;;;;;5045706;28;20232;-44
2022/04/02 03:02:56;;;;;;;9.90;7.70;;;6.80;59.50;;;;;;5045628;28;22666;-44
2022/04/02 03:05:21;;;;;;;10.43;8.37;;;7.00;59.60;;;;;;5047295;28;20192;-44
2022/04/02 03:07:48;;;;;;;9.03;7.23;;;6.80;59.10;;;;;;5052232;28;20258;-45
2022/04/02 03:10:27;;;;;;;10.00;7.77;;;6.60;59.30;;;;;;5052602;28;20223;-44
2022/04/02 03:12:57;;;;;;;9.50;7.20;;;6.70;59.90;;;;;;5045146;28;20455;-45
2022/04/02 03:15:24;;;;;;;14.40;7.67;;;6.80;59.60;;;;;;5046315;28;20493;-44
2022/04/02 03:17:51;;;;;;;8.67;7.87;;;6.90;59.40;;;;;;5047956;28;20442;-45
2022/04/02 03:20:18;;;;;;;8.00;7.20;;;7.00;59.40;;;;;;5046490;28;20477;-44
2022/04/02 03:22:45;;;;;;;8.03;6.57;;;7.10;59.30;;;;;;5044855;28;20490;-45
2022/04/02 03:25:23;;;;;;;15.90;7.50;;;7.20;59.00;;;;;;5044614;28;20986;-44
2022/04/02 03:27:49;;;;;;;10.93;6.53;;;7.10;58.60;;;;;;5047994;28;20451;-44
2022/04/02 03:30:18;;;;;;;11.00;7.40;;;7.00;58.70;;;;;;5045319;28;20450;-45
2022/04/02 03:32:44;;;;;;;9.10;7.63;;;7.00;58.70;;;;;;5044114;28;20462;-44
2022/04/02 03:35:14;;;;;;;8.30;6.77;;;6.90;58.70;;;;;;5043511;28;21079;-44
2022/04/02 03:37:41;;;;;;;7.33;6.63;;;6.80;59.00;;;;;;5045190;28;20456;-44
2022/04/02 03:40:08;;;;;;;10.50;6.40;;;6.60;59.20;;;;;;5046929;28;20439;-46
2022/04/02 03:42:35;;;;;;;7.43;6.53;;;6.70;59.50;;;;;;5045519;28;20490;-44
2022/04/02 03:45:00;;;;;;;14.03;8.60;;;6.70;59.10;;;;;;5045240;28;20461;-44
2022/04/02 03:47:26;;;;;;;10.67;6.87;;;6.50;59.40;;;;;;5045307;28;20438;-45
2022/04/02 03:49:52;;;;;;;8.27;6.70;;;6.50;59.60;;;;;;5044633;28;20197;-45
2022/04/02 03:52:18;;;;;;;7.47;6.17;;;6.70;59.70;;;;;;5047090;28;20193;-45
2022/04/02 03:54:44;;;;;;;9.40;6.73;;;6.70;59.60;;;;;;5046497;28;20197;-44
2022/04/02 03:57:12;;;;;;;8.33;7.40;;;6.90;59.80;;;;;;5044017;28;20450;-44
2022/04/02 03:59:39;;;;;;;7.17;6.50;;;7.00;59.10;;;;;;5052297;28;20914;-44
2022/04/02 04:02:05;;;;;;;8.43;6.53;;;7.10;59.00;;;;;;5054484;28;20483;-45
2022/04/02 04:04:33;;;;;;;9.60;6.27;;;7.20;58.70;;;;;;5044552;28;20439;-46
2022/04/02 04:06:59;;;;;;;8.23;7.23;;;7.30;58.30;;;;;;5047082;28;20197;-45
2022/04/02 04:09:25;;;;;;;8.50;6.37;;;7.30;58.30;;;;;;5047851;28;20443;-46
2022/04/02 04:11:51;;;;;;;9.37;6.70;;;7.10;58.20;;;;;;5044745;28;20953;-44
2022/04/02 04:14:19;;;;;;;7.80;6.37;;;7.00;58.30;;;;;;5046436;28;20439;-45
2022/04/02 04:16:45;;;;;;;12.13;6.97;;;6.90;58.70;;;;;;5048079;28;20450;-44
2022/04/02 04:19:11;;;;;;;8.30;6.83;;;6.80;58.70;;;;;;5045872;28;20791;-44
2022/04/02 04:21:37;;;;;;;6.17;5.53;;;6.60;58.90;;;;;;5046163;28;20503;-44
2022/04/02 04:24:04;;;;;;;9.70;6.13;;;6.60;59.30;;;;;;5032776;28;20468;-45
2022/04/02 04:26:30;;;;;;;7.80;7.00;;;6.60;59.20;;;;;;5021861;28;20527;-44
2022/04/02 04:28:56;;;;;;;11.33;6.50;;;6.60;60.20;;;;;;5025017;28;20791;-44
2022/04/02 04:31:22;;;;;;;9.27;6.47;;;6.60;59.50;;;;;;5023003;28;20474;-44
2022/04/02 04:33:49;;;;;;;9.63;5.80;;;6.70;59.70;;;;;;5022906;28;20440;-44
2022/04/02 04:36:16;;;;;;;10.30;7.20;;;6.70;59.80;;;;;;5019208;28;20190;-44
2022/04/02 04:38:42;;;;;;;7.77;6.83;;;6.70;60.10;;;;;;5023896;28;20528;-45
2022/04/02 04:41:08;;;;;;;12.87;7.00;;;6.80;59.90;;;;;;5023368;28;20504;-45
2022/04/02 04:43:34;;;;;;;9.00;6.40;;;7.00;59.60;;;;;;5023611;28;20482;-46
2022/04/02 04:46:02;;;;;;;11.77;7.30;;;7.00;59.30;;;;;;5021088;28;20198;-45
2022/04/02 04:48:28;;;;;;;8.50;6.33;;;7.10;59.30;;;;;;5024909;28;20452;-44
2022/04/02 04:50:53;;;;;;;9.47;6.80;;;7.10;59.20;;;;;;5023503;28;20936;-44
2022/04/02 04:53:19;;;;;;;10.87;7.37;;;7.20;59.20;;;;;;5026542;28;20519;-44
2022/04/02 04:55:44;;;;;;;8.57;7.07;;;7.20;59.10;;;;;;5032667;28;20216;-44
2022/04/02 04:58:10;;;;;;;7.83;6.57;;;7.20;59.00;;;;;;5027631;28;20283;-45
2022/04/02 05:00:36;;;;;;;8.00;7.20;;;7.20;59.20;;;;;;5028242;28;20553;-44
2022/04/02 05:03:02;;;;;;;6.90;6.23;;;7.30;59.20;;;;;;5023718;28;20206;-45
2022/04/02 05:05:31;;;;;;;7.53;6.73;;;7.30;59.30;;;;;;5020988;28;20550;-44
2022/04/02 05:07:57;;;;;;;10.43;6.70;;;7.20;59.30;;;;;;5026914;28;20653;-44
2022/04/02 05:10:23;;;;;;;10.23;5.93;;;7.20;59.30;;;;;;5019156;28;20951;-45
2022/04/02 05:12:49;;;;;;;13.10;6.90;;;7.10;59.20;;;;;;5006425;28;20460;-45
2022/04/02 05:15:15;;;;;;;11.80;6.70;;;7.10;59.40;;;;;;5023042;28;20534;-44
2022/04/02 05:17:41;;;;;;;7.90;7.13;;;7.20;59.20;;;;;;5024476;28;20236;-44
2022/04/02 05:20:10;;;;;;;8.00;6.27;;;7.40;60.20;;;;;;5025920;28;20460;-44
2022/04/02 05:22:36;;;;;;;6.40;5.50;;;7.50;60.20;;;;;;5016943;28;20226;-44
2022/04/02 05:25:02;;;;;;;6.70;6.03;;;7.80;60.00;;;;;;5040250;28;20505;-44
2022/04/02 05:27:28;;;;;;;7.27;6.20;;;7.90;59.50;;;;;;5045084;28;20844;-44
2022/04/02 05:29:54;;;;;;;6.60;6.10;;;8.10;59.00;;;;;;5043803;28;20447;-45
2022/04/02 05:32:20;;;;;;;7.07;6.03;;;8.20;58.10;;;;;;5046032;28;20193;-44
2022/04/02 05:34:46;;;;;;;7.80;7.10;;;8.20;57.60;;;;;;5039954;28;20538;-44
2022/04/02 05:37:11;;;;;;;7.27;6.67;;;8.20;57.20;;;;;;5049661;28;20196;-44
2022/04/02 05:39:37;;;;;;;7.00;6.30;;;8.20;57.20;;;;;;5045622;28;20197;-44
2022/04/02 05:42:05;;;;;;;8.07;7.33;;;8.30;57.30;;;;;;5048454;28;20252;-44
2022/04/02 05:44:31;;;;;;;7.17;6.50;;;8.30;57.10;;;;;;5050484;28;20196;-43
2022/04/02 05:46:57;;;;;;;6.00;5.40;;;8.30;56.90;;;;;;5052021;28;20482;-43
2022/04/02 05:49:22;;;;;;;8.40;7.60;;;8.30;57.00;;;;;;5051248;28;21129;-43
2022/04/02 05:51:48;;;;;;;9.17;7.57;;;8.30;56.90;;;;;;5052338;28;20201;-43
2022/04/02 05:54:14;;;;;;;10.53;7.80;;;8.30;56.90;;;;;;5051590;28;20224;-43
2022/04/02 05:56:42;;;;;;;6.13;5.60;;;8.30;56.50;;;;;;5053212;28;20208;-43
2022/04/02 05:59:08;;;;;;;7.80;7.20;;;8.30;56.60;;;;;;5052717;28;20434;-42
2022/04/02 06:01:37;;;;;;;6.73;6.13;;;8.30;56.70;;;;;;5052697;28;20482;-43
2022/04/02 06:04:03;;;;;;;6.87;6.17;;;8.30;56.90;;;;;;5051450;28;20448;-44
2022/04/02 06:06:30;;;;;;;7.10;5.73;;;8.30;56.80;;;;;;5053585;28;20510;-43
2022/04/02 06:08:56;;;;;;;6.70;6.00;;;8.40;56.70;;;;;;5052892;28;20446;-42
2022/04/02 06:11:22;;;;;;;6.63;5.60;;;8.40;56.50;;;;;;5051749;28;20446;-42
2022/04/02 06:13:47;;;;;;;9.70;5.93;;;8.40;56.50;;;;;;5052431;28;20430;-43
2022/04/02 06:16:13;;;;;;;6.73;6.20;;;8.40;56.40;;;;;;5052034;28;21398;-44
2022/04/02 06:18:38;;;;;;;6.40;5.57;;;8.30;57.00;;;;;;5051574;28;20212;-43
2022/04/02 06:21:04;;;;;;;6.77;6.10;;;8.40;56.80;;;;;;5050772;28;20235;-45
2022/04/02 06:23:31;;;;;;;6.33;5.60;;;8.40;56.80;;;;;;5052019;28;20232;-45
2022/04/02 06:25:57;;;;;;;6.33;5.73;;;8.50;56.60;;;;;;5051865;28;20192;-43
2022/04/02 06:28:23;;;;;;;11.67;5.77;;;8.60;56.80;;;;;;5051828;28;20786;-43
2022/04/02 06:30:49;;;;;;;5.87;5.27;;;8.50;56.10;;;;;;5050148;28;20526;-44
2022/04/02 06:33:14;;;;;;;6.13;5.53;;;8.50;55.90;;;;;;5050708;28;20526;-43
2022/04/02 06:35:40;;;;;;;8.80;5.70;;;8.40;56.00;;;;;;5049463;28;20506;-43
2022/04/02 06:38:06;;;;;;;11.43;8.90;;;8.30;56.20;;;;;;5052111;28;20215;-43
2022/04/02 06:40:32;;;;;;;5.03;4.53;;;8.10;56.20;;;;;;5049868;28;20189;-44
2022/04/02 06:42:58;;;;;;;5.67;5.13;;;8.10;56.60;;;;;;5049811;28;20220;-43
2022/04/02 06:45:25;;;;;;;5.03;4.53;;;8.10;56.50;;;;;;5051148;28;20965;-43
2022/04/02 06:47:50;;;;;;;6.70;5.30;;;7.90;56.80;;;;;;5049941;28;20831;-43
2022/04/02 06:50:16;;;;;;;5.43;4.93;;;7.90;56.90;;;;;;5050367;28;20423;-44
2022/04/02 06:52:44;;;;;;;6.00;5.30;;;7.80;57.10;;;;;;5051576;28;20419;-44
2022/04/02 06:55:13;;;;;;;5.27;4.77;;;7.60;57.20;;;;;;5050458;28;20898;-43
2022/04/02 06:57:44;;;;;;;7.27;5.93;;;7.60;57.80;;;;;;5050841;28;20557;-44
2022/04/02 07:00:11;;;;;;;9.70;4.80;;;7.30;57.90;;;;;;5051447;28;20439;-45
2022/04/02 07:02:38;;;;;;;8.00;5.53;;;7.10;58.30;;;;;;5046252;28;20831;-44
2022/04/02 07:05:04;;;;;;;5.83;5.23;;;7.20;58.90;;;;;;5050670;28;20791;-44
2022/04/02 07:07:30;;;;;;;6.57;5.97;;;7.20;58.90;;;;;;5049463;28;20435;-43
2022/04/02 07:09:56;;;;;;;6.50;5.90;;;7.10;58.70;;;;;;5051161;28;20504;-43
2022/04/02 07:12:22;;;;;;;5.60;5.10;;;7.10;58.80;;;;;;5047126;28;20204;-43
2022/04/02 07:14:47;;;;;;;6.40;5.80;;;7.00;58.70;;;;;;5049171;28;20435;-43
2022/04/02 07:17:14;;;;;;;7.50;5.93;;;6.90;59.10;;;;;;5051686;28;20227;-44
2022/04/02 07:19:40;;;;;;;8.00;6.33;;;6.70;59.70;;;;;;5050338;28;20271;-43
2022/04/02 07:22:08;;;;;;;7.27;6.63;;;6.70;60.20;;;;;;5050114;28;20474;-43
2022/04/02 07:24:37;;;;;;;7.57;6.77;;;6.80;59.90;;;;;;5048614;28;20487;-44
2022/04/02 07:27:02;;;;;;;7.60;5.60;;;6.90;60.00;;;;;;5031544;28;21000;-43
2022/04/02 07:29:31;;;;;;;6.80;5.90;;;7.00;59.70;;;;;;5050264;28;20431;-43
2022/04/02 07:31:57;;;;;;;5.87;5.27;;;7.20;59.50;;;;;;5048886;28;20609;-43
2022/04/02 07:34:22;;;;;;;7.73;5.63;;;7.20;58.80;;;;;;5051096;28;20447;-43
2022/04/02 07:37:08;;;;;;;6.63;6.03;;;7.30;58.90;;;;;;5050001;28;20218;-43
2022/04/02 07:39:53;;;;;;;11.83;6.20;;;7.40;58.80;;;;;;5042080;28;20199;-43
2022/04/02 07:42:33;;;;;;;6.73;6.03;;;7.30;58.50;;;;;;5047671;28;20482;-43
2022/04/02 07:45:08;;;;;;;7.87;5.40;;;7.30;58.50;;;;;;5049342;28;20431;-44
2022/04/02 07:47:41;;;;;;;6.43;5.83;;;7.20;58.60;;;;;;5045908;28;20453;-44
2022/04/02 07:50:15;;;;;;;6.33;5.17;;;7.10;59.00;;;;;;5049934;28;20423;-44
2022/04/02 07:52:46;;;;;;;8.27;6.00;;;7.00;59.70;;;;;;5050700;28;20466;-42
2022/04/02 07:55:12;;;;;;;9.60;5.57;;;7.00;59.40;;;;;;5049128;28;20828;-42
2022/04/02 07:57:43;;;;;;;7.53;5.53;;;7.00;59.10;;;;;;5048799;28;20447;-43
2022/04/02 08:00:11;;;;;;;6.30;5.57;;;7.00;59.30;;;;;;5048951;28;20423;-42
2022/04/02 08:02:43;;;;;;;7.40;6.70;;;7.00;59.00;;;;;;5047546;28;20652;-42
2022/04/02 08:05:15;;;;;;;6.20;5.60;;;6.80;59.00;;;;;;5048985;28;20446;-42
2022/04/02 08:07:49;;;;;;;8.70;5.50;;;6.70;59.80;;;;;;5048797;28;20443;-42
2022/04/02 08:10:20;;;;;;;5.30;4.90;;;6.70;60.30;;;;;;5046027;28;20922;-42
2022/04/02 08:12:47;;;;;;;7.33;6.60;;;6.60;59.50;;;;;;5048847;28;20443;-42
2022/04/02 08:15:16;;;;;;;7.17;5.17;;;6.90;59.80;;;;;;5047722;28;20942;-43
2022/04/02 08:17:44;;;;;;;6.80;5.23;;;6.90;59.10;;;;;;5049692;28;20439;-42
2022/04/02 08:20:10;;;;;;;5.70;5.10;;;6.60;58.90;;;;;;5051024;28;20524;-43
2022/04/02 08:22:36;;;;;;;5.33;4.83;;;6.70;59.30;;;;;;5048047;28;20486;-43
2022/04/02 08:25:03;;;;;;;4.87;4.30;;;6.80;59.40;;;;;;5050364;28;20462;-43
2022/04/02 08:27:46;;;;;;;5.97;5.03;;;6.90;59.00;;;;;;5049719;28;20435;-43
2022/04/02 08:30:18;;;;;;;7.23;5.00;;;7.00;58.70;;;;;;5049947;28;20427;-42
2022/04/02 08:32:55;;;;;;;6.70;6.00;;;7.00;58.70;;;;;;5050116;28;20804;-43
2022/04/02 08:35:39;;;;;;;6.80;6.20;;;7.00;58.50;;;;;;5048932;28;20438;-43
2022/04/02 08:38:05;;;;;;;7.37;5.20;;;7.20;58.20;;;;;;5047157;28;20466;-43
2022/04/02 08:40:56;;;;;;;6.30;5.70;;;7.10;58.40;;;;;;5046736;28;20435;-43
2022/04/02 08:43:43;;;;;;;6.20;5.03;;;7.00;58.40;;;;;;5045484;28;20506;-43
2022/04/02 08:46:15;;;;;;;5.43;4.90;;;7.10;58.60;;;;;;5047198;28;20427;-43
2022/04/02 08:48:58;;;;;;;5.33;4.93;;;7.20;58.70;;;;;;5049322;28;20485;-42
2022/04/02 08:51:45;;;;;;;6.10;5.50;;;6.90;58.40;;;;;;5048379;28;20451;-43
2022/04/02 08:54:24;;;;;;;5.57;5.13;;;7.00;58.90;;;;;;5041663;28;20447;-44
2022/04/02 08:57:00;;;;;;;5.63;4.60;;;6.70;59.10;;;;;;5040708;28;20445;-44
2022/04/02 08:59:38;;;;;;;5.70;5.20;;;7.00;59.10;;;;;;5047654;28;20572;-44
2022/04/02 09:02:36;;;;;;;5.43;4.93;;;7.10;58.80;;;;;;5043895;28;20486;-44
2022/04/02 09:05:07;;;;;;;6.30;5.70;;;7.10;58.30;;;;;;5046725;28;20507;-46
2022/04/02 09:07:52;;;;;;;6.20;5.60;;;6.90;58.70;;;;;;5045078;28;20435;-45
2022/04/02 09:10:47;;;;;;;6.27;5.60;;;6.90;59.00;;;;;;5048347;28;20434;-45
2022/04/02 09:13:32;;;;;;;8.00;6.30;;;6.90;59.00;;;;;;5005088;28;20451;-43
2022/04/02 09:16:04;;;;;;;6.70;6.00;;;6.90;59.60;;;;;;5047657;28;20492;-44
2022/04/02 09:19:09;;;;;;;7.80;6.07;;;7.00;59.50;;;;;;5038418;28;20437;-43
2022/04/02 09:22:01;;;;;;;6.73;5.90;;;6.90;59.10;;;;;;5047764;28;20927;-46
2022/04/02 09:24:46;;;;;;;6.90;6.30;;;6.70;59.20;;;;;;5043153;28;20475;-43
2022/04/02 09:27:17;;;;;;;7.07;6.30;;;6.50;60.00;;;;;;5045654;28;20922;-44
2022/04/02 09:30:03;;;;;;;7.37;6.57;;;6.50;59.80;;;;;;5045489;28;20453;-46
2022/04/02 09:32:35;;;;;;;9.13;7.67;;;6.50;59.90;;;;;;5046783;28;20509;-45
2022/04/02 09:35:26;;;;;;;7.43;6.70;;;6.40;61.20;;;;;;5044502;28;20443;-43
2022/04/02 09:38:10;;;;;;;8.07;6.93;;;6.00;60.00;;;;;;5046494;28;20447;-44
2022/04/02 09:40:46;;;;;;;8.17;7.37;;;5.90;61.40;;;;;;5046026;28;20471;-44
2022/04/02 09:43:23;;;;;;;10.20;7.50;;;6.00;61.40;;;;;;5042635;28;20487;-44
2022/04/02 09:46:01;;;;;;;8.20;7.33;;;6.10;60.50;;;;;;5046308;28;20789;-43
2022/04/02 09:49:06;;;;;;;9.20;8.30;;;6.30;59.70;;;;;;5044692;28;20435;-45
2022/04/02 09:51:34;;;;;;;8.30;7.50;;;6.30;60.00;;;;;;4990291;28;20452;-43
2022/04/02 09:54:13;;;;;;;8.93;7.33;;;6.30;60.10;;;;;;5048144;28;20434;-42
2022/04/02 09:56:49;;;;;;;7.70;7.00;;;6.20;60.20;;;;;;5044785;28;20805;-44
2022/04/02 09:59:42;;;;;;;8.17;7.37;;;5.90;60.60;;;;;;5045928;28;20497;-45
2022/04/02 10:02:17;;;;;;;7.90;7.10;;;5.90;60.80;;;;;;5046756;28;20485;-44
2022/04/02 10:04:52;;;;;;;8.20;7.40;;;5.90;61.40;;;;;;5027085;28;20877;-43
2022/04/02 10:07:47;;;;;;;9.13;7.73;;;6.10;61.90;;;;;;5042752;28;20434;-44
2022/04/02 10:10:15;;;;;;;7.40;6.70;;;6.20;61.20;;;;;;5027537;28;20447;-45
2022/04/02 10:12:46;;;;;;;7.70;6.53;;;6.10;61.00;;;;;;5058398;28;20509;-44
2022/04/02 10:15:14;;;;;;;9.80;8.57;;;6.30;61.60;;;;;;5048202;28;20471;-44
2022/04/02 10:17:46;;;;;;;9.07;7.90;;;6.20;60.90;;;;;;5047601;28;20439;-46
2022/04/02 10:20:13;;;;;;;8.53;7.73;;;6.20;61.20;;;;;;5048291;28;20450;-43
2022/04/02 10:22:43;;;;;;;8.53;7.70;;;6.40;61.80;;;;;;5044835;28;20490;-43
2022/04/02 10:25:11;;;;;;;8.90;6.67;;;6.40;61.40;;;;;;5049040;28;20462;-44
2022/04/02 10:27:38;;;;;;;8.97;7.90;;;6.50;61.80;;;;;;5048406;28;20834;-43
2022/04/02 10:30:25;;;;;;;7.83;7.00;;;6.60;62.10;;;;;;5050988;28;20443;-43
2022/04/02 10:33:46;;;;;;;7.83;7.03;;;6.70;61.40;;;;;;5044396;28;20462;-43
2022/04/02 10:35:54;;;;;;;8.27;7.47;;;6.90;59.70;;;;;;5031130;28;20447;-44
2022/04/02 10:38:35;;;;;;;10.33;7.97;;;7.00;60.00;;;;;;5048928;28;21078;-43
2022/04/02 10:41:28;;;;;;;10.63;8.27;;;7.40;60.00;;;;;;5048499;28;20453;-43
2022/04/02 10:44:04;;;;;;;9.40;8.47;;;7.30;59.80;;;;;;5046749;28;20559;-43
2022/04/02 10:46:32;;;;;;;12.77;8.87;;;7.40;59.00;;;;;;5043592;28;20435;-43
2022/04/02 10:49:05;;;;;;;10.00;9.00;;;7.60;58.90;;;;;;5048111;28;20478;-44
2022/04/02 10:51:35;;;;;;;8.43;7.60;;;7.60;58.30;;;;;;5050380;28;20447;-44
2022/04/02 10:54:04;;;;;;;8.23;7.43;;;7.70;58.10;;;;;;5048800;28;20473;-43
2022/04/02 10:56:35;;;;;;;8.53;7.67;;;7.40;57.50;;;;;;5046309;28;20439;-43
2022/04/02 10:59:01;;;;;;;9.53;8.17;;;7.20;58.40;;;;;;5057277;28;20469;-43
2022/04/02 11:01:28;;;;;;;8.83;8.03;;;7.40;58.70;;;;;;5049029;28;20484;-43
2022/04/02 11:03:57;;;;;;;10.67;9.63;;;7.50;58.50;;;;;;5051179;28;20196;-43
2022/04/02 11:06:46;;;;;;;11.73;9.27;;;7.50;57.70;;;;;;5050343;28;21219;-43
2022/04/02 11:09:36;;;;;;;9.50;8.60;;;7.20;56.90;;;;;;5050334;28;20573;-43
2022/04/02 11:12:10;;;;;;;10.00;8.30;;;7.10;57.90;;;;;;5044226;28;20450;-43
2022/04/02 11:14:49;;;;;;;11.33;9.13;;;6.90;57.20;;;;;;5050771;28;20450;-44
2022/04/02 11:17:34;;;;;;;11.10;7.60;;;6.80;58.20;;;;;;5050111;28;20435;-44
2022/04/02 11:20:09;;;;;;;10.13;9.13;;;7.00;59.40;;;;;;5049769;28;20442;-44
2022/04/02 11:22:57;;;;;;;10.20;8.10;;;6.90;58.30;;;;;;5050703;28;20494;-44
2022/04/02 11:25:23;;;;;;;9.70;8.70;;;7.00;58.90;;;;;;5049333;28;20474;-43
2022/04/02 11:27:56;;;;;;;9.97;8.93;;;7.30;58.50;;;;;;5050693;28;20458;-44
2022/04/02 11:30:30;;;;;;;9.60;8.27;;;7.40;57.90;;;;;;5048557;28;20299;-44
2022/04/02 11:33:05;;;;;;;9.90;8.90;;;7.30;57.10;;;;;;5050896;28;20834;-43
2022/04/02 11:35:31;;;;;;;9.20;8.30;;;7.30;57.30;;;;;;5043228;28;20449;-43
2022/04/02 11:38:09;;;;;;;8.90;8.00;;;7.30;58.00;;;;;;5049177;28;20438;-44
2022/04/02 11:40:40;;;;;;;8.53;7.83;;;7.40;57.70;;;;;;5049392;28;20466;-44
2022/04/02 11:43:07;;;;;;;9.03;8.07;;;7.60;57.70;;;;;;5050991;28;20533;-44
2022/04/02 11:45:36;;;;;;;9.70;8.27;;;7.40;56.70;;;;;;5049281;28;20797;-43
2022/04/02 11:48:10;;;;;;;10.97;9.87;;;7.20;57.50;;;;;;5049502;28;20439;-43
2022/04/02 11:50:43;;;;;;;13.80;9.80;;;7.10;58.40;;;;;;5046698;28;20492;-44
2022/04/02 11:53:10;;;;;;;9.47;8.47;;;7.10;57.80;;;;;;5048877;28;20431;-44
2022/04/02 11:55:38;;;;;;;9.40;8.50;;;7.20;57.70;;;;;;5049292;28;20435;-43
2022/04/02 11:58:05;;;;;;;9.70;8.73;;;7.20;57.70;;;;;;5048779;28;20914;-43
2022/04/02 12:00:33;;;;;;;9.10;8.23;;;7.30;57.60;;;;;;5041239;28;21080;-43
2022/04/02 12:03:00;;;;;;;11.83;8.67;;;7.20;58.20;;;;;;5050382;28;20624;-43
2022/04/02 12:05:39;;;;;;;10.20;9.20;;;7.10;57.90;;;;;;5046632;28;20794;-43
2022/04/02 12:08:05;;;;;;;10.73;9.50;;;7.20;58.40;;;;;;5048862;28;20458;-43
2022/04/02 12:10:32;;;;;;;11.80;8.90;;;7.20;58.00;;;;;;5030987;28;20451;-43
2022/04/02 12:13:00;;;;;;;10.33;8.77;;;7.30;58.30;;;;;;5045864;28;20596;-43
2022/04/02 12:15:26;;;;;;;12.73;9.33;;;7.40;58.00;;;;;;5046326;28;20458;-44
2022/04/02 12:18:02;;;;;;;12.43;10.00;;;7.40;57.30;;;;;;5046359;28;20442;-43
2022/04/02 12:20:29;;;;;;;12.13;10.87;;;7.40;57.30;;;;;;5047593;28;20423;-44
2022/04/02 12:23:17;;;;;;;13.60;11.70;;;7.40;57.50;;;;;;5045732;28;21244;-43
2022/04/02 12:25:45;;;;;;;13.73;10.73;;;7.60;57.50;;;;;;5021463;28;20826;-44
2022/04/02 12:28:12;;;;;;;10.70;9.67;;;7.40;56.40;;;;;;5029545;28;20462;-43
2022/04/02 12:30:41;;;;;;;10.50;9.50;;;7.30;56.70;;;;;;5024501;28;20487;-43
2022/04/02 12:33:08;;;;;;;11.67;10.37;;;6.80;57.10;;;;;;5027132;28;20447;-43
2022/04/02 12:35:34;;;;;;;10.73;9.73;;;6.70;58.10;;;;;;5028392;28;20435;-43
2022/04/02 12:38:05;;;;;;;12.13;10.93;;;7.00;58.70;;;;;;5021257;28;20478;-43
2022/04/02 12:40:33;;;;;;;12.00;9.57;;;7.20;58.20;;;;;;5010855;28;20448;-43
2022/04/02 12:43:07;;;;;;;10.17;9.17;;;7.20;58.20;;;;;;5030041;28;20532;-43
2022/04/02 12:45:34;;;;;;;14.73;11.60;;;7.40;58.80;;;;;;5031428;28;21013;-45
2022/04/02 12:48:03;;;;;;;13.60;11.10;;;7.60;58.80;;;;;;5028627;28;20466;-44
2022/04/02 12:50:50;;;;;;;11.20;10.07;;;7.80;58.60;;;;;;5012181;28;20435;-44
2022/04/02 12:53:29;;;;;;;12.97;10.20;;;7.90;58.30;;;;;;5022890;28;20440;-45
2022/04/02 12:55:55;;;;;;;12.50;11.30;;;7.80;57.60;;;;;;5022831;28;20455;-44
2022/04/02 12:58:30;;;;;;;10.33;9.43;;;7.50;57.30;;;;;;5025791;28;20459;-44
2022/04/02 13:01:08;;;;;;;10.80;9.37;;;7.40;58.20;;;;;;5029485;28;20466;-45
2022/04/02 13:03:42;;;;;;;11.30;10.20;;;7.40;58.10;;;;;;5032264;28;20444;-44
2022/04/02 13:06:17;;;;;;;10.40;9.30;;;7.30;58.40;;;;;;5003531;28;20458;-44
2022/04/02 13:08:57;;;;;;;11.57;10.40;;;7.30;58.40;;;;;;5026821;28;20463;-44